Terminal Aerodrome Forecast
Issued by NWS

Home | Current Version | Previous Version | Text Only | Print | Product List | Glossary On
Versions: 1 2 3 4 5 6 7 8 9 10 11 12 13 14 15 16
000
FTAK31 PAFA 302339
TAFAUN
TAF
PAUN 302339Z 3100/3124 11006KT P6SM SKC
     FM311500 08010KT P6SM SCT200
     FM312100 08015KT P6SM BKN200=

USA.gov is the U.S. government's official web portal to all federal, state and local government web resources and services.